Time;durP1;ratioP1;P1;durP2;ratioP2;P2;SDS_P1;SDS_P2;PMS_P1;PMS_P2;Temp;Humidity;BMP_temperature;BMP_pressure;BME280_temperature;BME280_humidity;BME280_pressure;Samples;Min_cycle;Max_cycle;Signal;HPM_P1;HPM_P2
2023/01/06 00:00:22;;;;;;;59.25;24.73;;;;;;;-146.25;100.00;52504.03;2087929;28;20038;-73
2023/01/06 00:01:24;;;;;;;66.82;25.90;;;;;;;-146.25;100.00;52502.03;2087420;28;40463;-73
2023/01/06 00:02:26;;;;;;;52.53;25.23;;;;;;;-146.25;100.00;52449.31;2095720;28;38321;-73
2023/01/06 00:03:28;;;;;;;58.47;25.05;;;;;;;-146.25;100.00;52485.81;2095935;28;34575;-73
2023/01/06 00:04:30;;;;;;;66.75;26.10;;;;;;;-146.25;100.00;52506.06;2095035;28;36991;-73
2023/01/06 00:05:31;;;;;;;65.80;26.58;;;;;;;-146.25;100.00;52504.03;2095749;28;37317;-73
2023/01/06 00:06:33;;;;;;;60.13;25.75;;;;;;;-146.25;100.00;52461.47;2096841;28;36273;-73
2023/01/06 00:07:35;;;;;;;59.55;25.73;;;;;;;-146.25;100.00;52475.66;2086772;28;36703;-73
2023/01/06 00:08:37;;;;;;;60.58;24.67;;;;;;;-146.25;100.00;52497.97;2080685;28;20806;-73
2023/01/06 00:09:39;;;;;;;61.00;25.80;;;;;;;-146.25;100.00;52495.94;2087254;28;41330;-73
2023/01/06 00:10:40;;;;;;;62.38;26.30;;;;;;;-146.25;100.00;52487.81;2094655;28;37639;-73
2023/01/06 00:11:42;;;;;;;61.15;26.65;;;;;;;-146.25;100.00;52489.84;2096336;28;39837;-73
2023/01/06 00:12:46;;;;;;;64.80;27.50;;;;;;;-146.25;100.00;52495.94;2096597;28;38338;-73
2023/01/06 00:13:50;;;;;;;70.50;26.80;;;;;;;-146.25;100.00;52485.81;2080044;28;20045;-73
2023/01/06 00:14:52;;;;;;;63.90;25.83;;;;;;;-146.25;100.00;52516.22;2080273;28;41353;-73
2023/01/06 00:15:56;;;;;;;60.58;25.92;;;;;;;-146.25;100.00;52489.84;2096524;28;35928;-73
2023/01/06 00:16:57;;;;;;;65.50;27.05;;;;;;;-146.25;100.00;52489.84;2096596;28;40838;-73
2023/01/06 00:17:59;;;;;;;62.75;25.67;;;;;;;-146.25;100.00;52514.19;2086579;28;37188;-73
2023/01/06 00:19:01;;;;;;;69.88;26.52;;;;;;;-146.25;100.00;52493.91;2089605;28;20339;-73
2023/01/06 00:20:04;;;;;;;60.92;26.65;;;;;;;-146.25;100.00;52497.97;2095441;28;42895;-73
2023/01/06 00:21:07;;;;;;;61.75;27.30;;;;;;;-146.25;100.00;52514.19;2096252;28;36124;-73
2023/01/06 00:22:09;;;;;;;65.95;26.60;;;;;;;-146.25;100.00;52473.63;2095659;28;39353;-73
2023/01/06 00:23:10;;;;;;;67.45;26.23;;;;;;;-146.25;100.00;52483.78;2094791;28;36824;-72
2023/01/06 00:24:12;;;;;;;60.88;24.98;;;;;;;-146.25;100.00;52522.28;2096515;28;36543;-73
2023/01/06 00:25:14;;;;;;;72.50;26.75;;;;;;;-146.25;100.00;52502.03;2096599;28;38706;-73
2023/01/06 00:26:15;;;;;;;61.60;24.90;;;;;;;-146.25;100.00;52485.81;2095425;28;37304;-73
2023/01/06 00:27:20;;;;;;;59.97;25.38;;;;;;;-146.25;100.00;52479.72;2096241;28;20163;-74
2023/01/06 00:28:21;;;;;;;57.20;25.83;;;;;;;-146.25;100.00;52469.56;2096822;28;27734;-73
2023/01/06 00:29:23;;;;;;;61.92;26.48;;;;;;;-146.25;100.00;52475.66;2096377;28;38101;-73
2023/01/06 00:30:26;;;;;;;64.65;26.48;;;;;;;-146.25;100.00;52483.78;2085558;28;20041;-73
2023/01/06 00:31:30;;;;;;;63.88;25.15;;;;;;;-146.25;100.00;52510.13;2087287;28;27414;-73
2023/01/06 00:32:33;;;;;;;63.97;26.40;;;;;;;-146.25;100.00;52495.94;2099650;28;20060;-73
2023/01/06 00:33:35;;;;;;;61.22;25.52;;;;;;;-146.25;100.00;52455.38;2087617;28;29218;-73
2023/01/06 00:34:37;;;;;;;62.83;26.38;;;;;;;-146.25;100.00;52497.97;2079535;28;33134;-73
2023/01/06 00:35:41;;;;;;;64.55;26.23;;;;;;;-146.25;100.00;52546.63;2087499;28;20801;-72
2023/01/06 00:36:43;;;;;;;62.13;26.92;;;;;;;-146.25;100.00;52493.91;2095785;28;27348;-73
2023/01/06 00:37:44;;;;;;;61.80;26.35;;;;;;;-146.25;100.00;52489.84;2096301;28;35402;-73
2023/01/06 00:38:48;;;;;;;60.85;25.75;;;;;;;-146.25;100.00;52497.97;2095182;28;37039;-73
2023/01/06 00:39:50;;;;;;;68.47;25.88;;;;;;;-146.25;100.00;52479.72;2095495;28;35907;-73
2023/01/06 00:40:51;;;;;;;62.03;25.50;;;;;;;-146.25;100.00;52469.56;2096347;28;31121;-72
2023/01/06 00:42:02;;;;;;;59.30;25.50;;;;;;;-146.25;100.00;52518.25;2086946;28;27778;-73
2023/01/06 00:43:04;;;;;;;;;;;;;;;-146.25;100.00;52487.81;2089136;28;20395;-73
2023/01/06 00:44:07;;;;;;;60.50;24.80;;;;;;;-146.25;100.00;52481.75;2088055;28;19925;-72
2023/01/06 00:45:09;;;;;;;62.35;26.50;;;;;;;-146.25;100.00;52475.66;2087890;28;27604;-73
2023/01/06 00:46:10;;;;;;;64.93;27.25;;;;;;;-146.25;100.00;52481.75;2086977;28;27812;-73
2023/01/06 00:47:14;;;;;;;69.32;27.20;;;;;;;-146.25;100.00;52445.25;2080355;28;21117;-73
2023/01/06 00:48:16;;;;;;;65.47;26.15;;;;;;;-146.25;100.00;52489.84;2087979;28;30681;-73
2023/01/06 00:49:20;;;;;;;64.38;26.63;;;;;;;-146.25;100.00;52475.66;2099007;28;30704;-73
2023/01/06 00:50:23;;;;;;;66.15;26.90;;;;;;;-146.25;100.00;52493.91;2097014;28;30367;-73
2023/01/06 00:51:25;;;;;;;65.90;27.52;;;;;;;-146.25;100.00;52493.91;2087530;28;20037;-73
2023/01/06 00:52:26;;;;;;;64.20;28.20;;;;;;;-146.25;100.00;52473.63;2087608;28;20033;-73
2023/01/06 00:53:28;;;;;;;63.92;28.25;;;;;;;-146.25;100.00;52544.59;2082728;28;20855;-73
2023/01/06 00:54:30;;;;;;;70.10;27.88;;;;;;;-146.25;100.00;52536.50;2087585;28;33109;-73
2023/01/06 00:55:32;;;;;;;64.50;27.98;;;;;;;-146.25;100.00;52518.25;2096056;28;20029;-73
2023/01/06 00:56:38;;;;;;;68.50;27.98;;;;;;;-146.25;100.00;52473.63;2086950;28;35656;-73
2023/01/06 00:57:41;;;;;;;64.38;26.65;;;;;;;-146.25;100.00;52493.91;2087322;28;20111;-73
2023/01/06 00:58:43;;;;;;;55.63;25.45;;;;;;;-146.25;100.00;52489.84;2086188;28;34471;-73
2023/01/06 00:59:45;;;;;;;63.42;26.98;;;;;;;-146.25;100.00;52502.03;2078979;28;31956;-73
2023/01/06 01:00:46;;;;;;;70.50;26.92;;;;;;;-146.25;100.00;52502.03;2079310;28;20046;-73
2023/01/06 01:01:53;;;;;;;58.40;26.05;;;;;;;-146.25;100.00;52518.25;2078952;28;37517;-73
2023/01/06 01:02:55;;;;;;;60.28;27.15;;;;;;;-146.25;100.00;52469.56;2080560;28;31400;-73
2023/01/06 01:03:57;;;;;;;55.22;26.38;;;;;;;-146.25;100.00;52483.78;2080186;28;22841;-73
2023/01/06 01:04:58;;;;;;;58.08;26.65;;;;;;;-146.25;100.00;52506.06;2087400;28;35745;-73
2023/01/06 01:06:02;;;;;;;60.45;26.27;;;;;;;-146.25;100.00;52493.91;2087232;28;32347;-73
2023/01/06 01:07:04;;;;;;;59.83;27.13;;;;;;;-146.25;100.00;52473.63;2093840;28;32871;-73
2023/01/06 01:08:06;;;;;;;64.32;26.65;;;;;;;-146.25;100.00;52481.75;2085501;28;37034;-73
2023/01/06 01:09:13;;;;;;;62.95;27.02;;;;;;;-146.25;100.00;52493.91;2087418;28;32922;-73
2023/01/06 01:10:14;;;;;;;59.97;27.10;;;;;;;-146.25;100.00;52526.34;2096085;28;36153;-73
2023/01/06 01:12:37;;;;;;;54.08;25.90;;;;;;;-146.25;100.00;52465.53;2102729;28;21032;-72
2023/01/06 01:13:41;;;;;;;68.82;26.63;;;;;;;-146.25;100.00;52493.91;2095397;28;20917;-73
2023/01/06 01:14:53;;;;;;;52.13;25.35;;;;;;;-146.25;100.00;52445.25;2093320;28;20991;-73
2023/01/06 01:15:55;;;;;;;53.00;25.48;;;;;;;-146.25;100.00;52518.25;2087045;28;28194;-73
2023/01/06 01:16:56;;;;;;;64.90;27.02;;;;;;;-146.25;100.00;52514.19;2071006;28;30123;-73
2023/01/06 01:17:58;;;;;;;50.83;24.95;;;;;;;-146.25;100.00;52500.00;2079662;28;22139;-73
2023/01/06 01:19:00;;;;;;;57.03;26.52;;;;;;;-146.25;100.00;52457.41;2096009;28;39020;-74
2023/01/06 01:20:04;;;;;;;57.33;26.58;;;;;;;-146.25;100.00;52489.84;2081731;28;20220;-73
2023/01/06 01:21:05;;;;;;;65.07;27.33;;;;;;;-146.25;100.00;52473.63;2071288;28;34194;-73
2023/01/06 01:22:08;;;;;;;58.28;27.15;;;;;;;-146.25;100.00;52481.75;2087549;28;32226;-72
2023/01/06 01:23:10;;;;;;;56.53;26.10;;;;;;;-146.25;100.00;52493.91;2086985;28;20044;-73
2023/01/06 01:24:12;;;;;;;56.85;27.13;;;;;;;-146.25;100.00;52506.06;2078594;28;40018;-73
2023/01/06 01:25:14;;;;;;;58.22;26.67;;;;;;;-146.25;100.00;52463.50;2079675;28;20049;-73
2023/01/06 01:26:17;;;;;;;59.35;27.02;;;;;;;-146.25;100.00;52506.06;2093177;28;20037;-73
2023/01/06 01:27:19;;;;;;;56.72;26.45;;;;;;;-146.25;100.00;52467.56;2079215;28;31794;-73
2023/01/06 01:28:23;;;;;;;58.15;27.02;;;;;;;-146.25;100.00;52489.84;2079310;28;20042;-73
2023/01/06 01:29:25;;;;;;;52.97;26.83;;;;;;;-146.25;100.00;52518.25;2080476;28;33569;-73
2023/01/06 01:30:26;;;;;;;61.65;27.02;;;;;;;-146.25;100.00;52487.81;2096922;28;20037;-73
2023/01/06 01:31:29;;;;;;;56.47;26.90;;;;;;;-146.25;100.00;52489.84;2095797;28;20886;-73
2023/01/06 01:32:33;;;;;;;58.65;27.48;;;;;;;-146.25;100.00;52479.72;2095536;28;32319;-73
2023/01/06 01:33:36;;;;;;;59.70;28.27;;;;;;;-146.25;100.00;52463.50;2096743;28;20037;-73
2023/01/06 01:34:38;;;;;;;60.92;27.08;;;;;;;-146.25;100.00;52497.97;2096177;28;37720;-73
2023/01/06 01:35:40;;;;;;;59.78;27.33;;;;;;;-146.25;100.00;52500.00;2088046;28;20049;-72
2023/01/06 01:36:45;;;;;;;60.30;27.90;;;;;;;-146.25;100.00;52497.97;2087545;28;21243;-73
2023/01/06 01:37:47;;;;;;;56.30;28.30;;;;;;;-146.25;100.00;52475.66;2096563;28;33626;-73
2023/01/06 01:38:48;;;;;;;54.25;27.48;;;;;;;-146.25;100.00;52441.19;2087681;28;20044;-73
2023/01/06 01:39:52;;;;;;;63.45;28.90;;;;;;;-146.25;100.00;52500.00;2087105;28;35818;-73
2023/01/06 01:40:54;;;;;;;65.88;30.05;;;;;;;-146.25;100.00;52461.47;2096454;28;20171;-73
2023/01/06 01:41:57;;;;;;;59.38;28.58;;;;;;;-146.25;100.00;52497.97;2096131;28;29797;-73
2023/01/06 01:42:59;;;;;;;54.90;27.92;;;;;;;-146.25;100.00;52502.03;2096327;28;29483;-73
2023/01/06 01:44:40;;;;;;;58.90;27.52;;;;;;;-146.25;100.00;52506.06;2096290;28;25672;-72
2023/01/06 01:45:51;;;;;;;54.13;26.38;;;;;;;-146.25;100.00;52504.03;2087638;28;21041;-73
2023/01/06 01:46:53;;;;;;;55.13;26.90;;;;;;;-146.25;100.00;52465.53;2088385;28;34150;-73
2023/01/06 01:48:20;;;;;;;57.28;28.05;;;;;;;-146.25;100.00;52477.69;2086860;28;29381;-73
2023/01/06 01:49:27;;;;;;;55.78;28.27;;;;;;;-146.25;100.00;52497.97;2078959;28;38590;-73
2023/01/06 01:50:52;;;;;;;59.83;29.02;;;;;;;-146.25;100.00;52469.56;2083779;28;20037;-73
2023/01/06 01:51:56;;;;;;;63.45;27.65;;;;;;;-146.25;100.00;52506.06;2092120;28;29848;-73
2023/01/06 01:53:06;;;;;;;62.45;29.45;;;;;;;-146.25;100.00;52502.03;2078888;28;33823;-73
2023/01/06 01:54:13;;;;;;;;;;;;;;;-146.25;100.00;52493.91;2074202;28;34644;-73
2023/01/06 01:55:15;;;;;;;55.50;26.17;;;;;;;-146.25;100.00;52514.19;2090297;28;40274;-73
2023/01/06 01:56:28;;;;;;;64.97;29.80;;;;;;;-146.25;100.00;52502.03;2087517;28;29656;-73
2023/01/06 01:57:42;;;;;;;62.22;29.02;;;;;;;-146.25;100.00;52497.97;2081502;28;33979;-73
2023/01/06 01:58:56;;;;;;;61.20;29.40;;;;;;;-146.25;100.00;52489.84;2082046;28;35303;-73
2023/01/06 01:59:58;;;;;;;61.25;28.77;;;;;;;-146.25;100.00;52485.81;2083686;28;20164;-73
2023/01/06 02:01:00;;;;;;;56.95;28.02;;;;;;;-146.25;100.00;52479.72;2087896;28;34793;-74
2023/01/06 02:02:03;;;;;;;70.60;30.48;;;;;;;-146.25;100.00;52512.16;2088969;28;20118;-73
2023/01/06 02:03:05;;;;;;;63.10;30.13;;;;;;;-146.25;100.00;52510.13;2080019;28;27166;-73
2023/01/06 02:04:09;;;;;;;61.35;29.25;;;;;;;-146.25;100.00;52479.72;2072537;28;33464;-73
2023/01/06 02:05:22;;;;;;;65.22;29.58;;;;;;;-146.25;100.00;52487.81;2090024;28;20132;-73
2023/01/06 02:06:26;;;;;;;61.10;28.90;;;;;;;-146.25;100.00;52453.34;2078821;28;24138;-72
2023/01/06 02:07:28;;;;;;;60.42;28.90;;;;;;;-146.25;100.00;52485.81;2082423;28;24537;-73
2023/01/06 02:08:39;;;;;;;56.85;28.63;;;;;;;-146.25;100.00;52506.06;2088722;28;20045;-73
2023/01/06 02:10:03;;;;;;;62.25;29.58;;;;;;;-146.25;100.00;52471.59;2081419;28;40478;-72
2023/01/06 02:11:07;;;;;;;60.05;28.27;;;;;;;-146.25;100.00;52514.19;2096948;28;20051;-72
2023/01/06 02:12:09;;;;;;;59.50;28.60;;;;;;;-146.25;100.00;52566.91;2087738;28;37128;-72
2023/01/06 02:13:11;;;;;;;61.30;29.45;;;;;;;-146.25;100.00;52481.75;2096712;28;20037;-72
2023/01/06 02:14:17;;;;;;;57.72;28.10;;;;;;;-146.25;100.00;52510.13;2097241;28;23780;-71
2023/01/06 02:15:29;;;;;;;60.22;29.23;;;;;;;-146.25;100.00;52479.72;2096908;28;20037;-72
2023/01/06 02:16:42;;;;;;;59.63;27.75;;;;;;;-146.25;100.00;52479.72;2094896;28;20461;-72
2023/01/06 02:18:29;;;;;;;53.67;27.50;;;;;;;-146.25;100.00;52500.00;2082471;28;20041;-73
2023/01/06 02:19:51;;;;;;;55.47;27.55;;;;;;;-146.25;100.00;52526.34;2086787;28;20056;-73
2023/01/06 02:21:25;;;;;;;58.63;29.17;;;;;;;-146.25;100.00;52495.94;2090997;28;24688;-72
2023/01/06 02:22:53;;;;;;;48.28;25.27;;;;;;;-146.25;100.00;52479.72;2097641;28;20049;-73
2023/01/06 02:24:30;;;;;;;53.22;25.98;;;;;;;-146.25;100.00;52449.31;2085134;28;21102;-73
2023/01/06 02:26:33;;;;;;;50.35;25.63;;;;;;;-146.25;100.00;52506.06;2085719;28;20053;-73
2023/01/06 02:27:59;;;;;;;48.70;25.48;;;;;;;-146.25;100.00;52473.63;2079394;28;20049;-73
2023/01/06 02:30:11;;;;;;;42.60;24.80;;;;;;;-146.25;100.00;52483.78;2080591;28;20042;-73
2023/01/06 02:31:54;;;;;;;43.75;24.80;;;;;;;-146.25;100.00;52520.28;2031165;29;20061;-73
2023/01/06 02:33:11;;;;;;;48.20;25.60;;;;;;;-146.25;100.00;52510.13;2056451;28;34791;-74
2023/01/06 02:34:43;;;;;;;42.33;24.33;;;;;;;-146.25;100.00;52528.38;2079914;28;20096;-73
2023/01/06 02:35:57;;;;;;;41.00;23.80;;;;;;;-146.25;100.00;52526.34;2084624;28;33193;-74
2023/01/06 02:37:37;;;;;;;45.30;23.80;;;;;;;-146.25;100.00;52467.56;2088408;28;20938;-74
2023/01/06 02:39:08;;;;;;;42.58;24.02;;;;;;;-146.25;100.00;52491.88;2075594;28;34401;-72
2023/01/06 02:40:34;;;;;;;41.33;22.67;;;;;;;-146.25;100.00;52489.84;2084831;28;20041;-74
2023/01/06 02:41:59;;;;;;;40.70;22.52;;;;;;;-146.25;100.00;52469.56;2087682;28;20052;-72
2023/01/06 02:43:28;;;;;;;41.88;23.20;;;;;;;-146.25;100.00;52534.47;2080905;28;20184;-72
2023/01/06 02:44:59;;;;;;;38.38;21.55;;;;;;;-146.25;100.00;52471.59;2090801;28;20044;-72
2023/01/06 02:46:34;;;;;;;37.90;23.55;;;;;;;-146.25;100.00;52504.03;2087033;28;25304;-73
2023/01/06 02:47:59;;;;;;;38.95;22.17;;;;;;;-146.25;100.00;52485.81;2087827;28;30612;-73
2023/01/06 02:49:37;;;;;;;39.83;21.77;;;;;;;-146.25;100.00;52522.28;2078840;28;20962;-72
2023/01/06 02:50:54;;;;;;;38.65;21.88;;;;;;;-146.25;100.00;52502.03;2082373;28;20050;-72
2023/01/06 02:52:08;;;;;;;42.50;22.02;;;;;;;-146.25;100.00;52495.94;2089415;28;20030;-72
2023/01/06 02:53:23;;;;;;;;;;;;;;;-146.25;100.00;52522.28;2099175;28;20836;-74
2023/01/06 02:54:54;;;;;;;40.85;22.25;;;;;;;-146.25;100.00;52502.03;2104866;28;19989;-72
2023/01/06 02:55:58;;;;;;;37.28;21.02;;;;;;;-146.25;100.00;52532.44;2092141;28;20115;-72
2023/01/06 02:57:36;;;;;;;37.40;21.38;;;;;;;-146.25;100.00;52459.44;2087185;28;34407;-72
2023/01/06 02:58:54;;;;;;;34.90;20.35;;;;;;;-146.25;100.00;52495.94;2084521;28;20056;-74
2023/01/06 03:00:19;;;;;;;36.90;21.77;;;;;;;-146.25;100.00;52491.88;2075073;28;20046;-74
2023/01/06 03:01:29;;;;;;;39.25;20.83;;;;;;;-146.25;100.00;52495.94;2075732;28;20149;-73
2023/01/06 03:02:34;;;;;;;32.78;20.73;;;;;;;-146.25;100.00;52481.75;2072581;28;20050;-73
2023/01/06 03:03:41;;;;;;;33.28;19.85;;;;;;;-146.25;100.00;52497.97;2072221;28;27709;-73
2023/01/06 03:04:47;;;;;;;30.52;20.50;;;;;;;-146.25;100.00;52506.06;2065385;28;20051;-73
2023/01/06 03:05:56;;;;;;;33.00;19.75;;;;;;;-146.25;100.00;52493.91;2073338;28;20050;-73
2023/01/06 03:07:02;;;;;;;33.10;20.92;;;;;;;-146.25;100.00;52489.84;2081329;28;20046;-73
2023/01/06 03:08:13;;;;;;;31.67;19.02;;;;;;;-146.25;100.00;52512.16;2083664;28;20045;-73
2023/01/06 03:09:22;;;;;;;31.13;19.67;;;;;;;-146.25;100.00;52489.84;2081025;28;26973;-72
2023/01/06 03:10:26;;;;;;;30.55;18.75;;;;;;;-146.25;100.00;52483.78;2081710;28;20034;-73
2023/01/06 03:11:32;;;;;;;36.00;19.38;;;;;;;-146.25;100.00;52479.72;2090411;28;20045;-73
2023/01/06 03:13:05;;;;;;;33.08;18.67;;;;;;;-146.25;100.00;52489.84;2088450;28;20914;-73
2023/01/06 03:14:26;;;;;;;28.00;18.23;;;;;;;-146.25;100.00;52491.88;2093049;28;20045;-73
2023/01/06 03:15:28;;;;;;;;;;;;;;;-146.25;100.00;52500.00;2090410;28;20045;-73
2023/01/06 03:16:30;;;;;;;26.52;18.08;;;;;;;-146.25;100.00;52506.06;2099521;28;19921;-72
2023/01/06 03:17:32;;;;;;;28.25;17.85;;;;;;;-146.25;100.00;52465.53;2088397;28;20080;-72
2023/01/06 03:18:35;;;;;;;26.45;17.65;;;;;;;-146.25;100.00;52453.34;2079644;28;36097;-73
2023/01/06 03:19:38;;;;;;;30.42;17.48;;;;;;;-146.25;100.00;52493.91;2079925;28;20132;-72
2023/01/06 03:20:40;;;;;;;29.40;17.80;;;;;;;-146.25;100.00;52512.16;2071627;28;20054;-73
2023/01/06 03:21:45;;;;;;;27.15;17.35;;;;;;;-146.25;100.00;52479.72;2087841;28;20336;-73
2023/01/06 03:22:47;;;;;;;25.90;16.13;;;;;;;-146.25;100.00;52473.63;2079229;28;20053;-72
2023/01/06 03:23:48;;;;;;;23.73;16.55;;;;;;;-146.25;100.00;52502.03;2071944;28;33853;-73
2023/01/06 03:24:51;;;;;;;26.98;17.77;;;;;;;-146.25;100.00;52497.97;2079082;28;33120;-72
2023/01/06 03:25:55;;;;;;;24.08;16.08;;;;;;;-146.25;100.00;52514.19;2088675;28;20029;-73
2023/01/06 03:27:03;;;;;;;25.77;17.13;;;;;;;-146.25;100.00;52512.16;2086962;28;20123;-73
2023/01/06 03:28:05;;;;;;;27.00;16.50;;;;;;;-146.25;100.00;52479.72;2073968;28;20050;-73
2023/01/06 03:29:12;;;;;;;24.13;16.80;;;;;;;-146.25;100.00;52485.81;2079646;28;20038;-73
2023/01/06 03:30:14;;;;;;;23.15;15.90;;;;;;;-146.25;100.00;52473.63;2079815;28;20053;-73
2023/01/06 03:31:44;;;;;;;24.73;15.50;;;;;;;-146.25;100.00;52510.13;2071497;28;20906;-73
2023/01/06 03:33:04;;;;;;;23.92;14.90;;;;;;;-146.25;100.00;52508.09;2083710;28;20041;-73
2023/01/06 03:34:52;;;;;;;24.92;15.43;;;;;;;-146.25;100.00;52495.94;2088239;28;20041;-72
2023/01/06 03:36:23;;;;;;;22.70;15.25;;;;;;;-146.25;100.00;52485.81;2087328;28;25549;-72
2023/01/06 03:37:43;;;;;;;20.13;14.57;;;;;;;-146.25;100.00;52502.03;2079760;28;20827;-73
2023/01/06 03:39:17;;;;;;;22.27;14.73;;;;;;;-146.25;100.00;52500.00;2082599;28;20042;-73
2023/01/06 03:40:42;;;;;;;22.50;14.25;;;;;;;-146.25;100.00;52536.50;2097143;28;20045;-73
2023/01/06 03:44:01;;;;;;;25.70;14.70;;;;;;;-146.25;100.00;52469.56;2077737;28;20117;-73
2023/01/06 03:45:21;;;;;;;24.30;14.07;;;;;;;-146.25;100.00;52489.84;2091496;28;20961;-72
2023/01/06 03:46:29;;;;;;;22.88;13.18;;;;;;;-146.25;100.00;52477.69;2096772;28;20029;-72
2023/01/06 03:47:51;;;;;;;21.48;14.40;;;;;;;-146.25;100.00;52457.41;2079324;28;28001;-73
2023/01/06 03:49:21;;;;;;;17.65;12.90;;;;;;;-146.25;100.00;52493.91;2078731;28;20960;-72
2023/01/06 03:50:50;;;;;;;20.00;13.55;;;;;;;-146.25;100.00;52514.19;2084368;28;20046;-72
2023/01/06 03:52:06;;;;;;;19.92;13.85;;;;;;;-146.25;100.00;52487.81;2091867;28;20755;-72
2023/01/06 03:53:37;;;;;;;17.10;12.77;;;;;;;-146.25;100.00;52449.31;2087891;28;20933;-72
2023/01/06 03:55:07;;;;;;;19.70;13.15;;;;;;;-146.25;100.00;52493.91;2081238;28;20049;-73
2023/01/06 03:56:21;;;;;;;21.80;13.20;;;;;;;-146.25;100.00;52481.75;2091220;28;20076;-72
2023/01/06 03:57:30;;;;;;;19.40;12.82;;;;;;;-146.25;100.00;52493.91;2096133;28;23351;-73
2023/01/06 03:58:33;;;;;;;22.35;13.70;;;;;;;-146.25;100.00;52502.03;2087668;28;20054;-72
2023/01/06 03:59:44;;;;;;;19.83;13.30;;;;;;;-146.25;100.00;52520.28;2064707;28;20209;-72
2023/01/06 04:00:48;;;;;;;20.20;13.18;;;;;;;-146.25;100.00;52465.53;2075693;28;20046;-72
2023/01/06 04:01:50;;;;;;;17.35;13.50;;;;;;;-146.25;100.00;52493.91;2088408;28;20053;-74
2023/01/06 04:02:54;;;;;;;20.40;13.18;;;;;;;-146.25;100.00;52493.91;2080153;28;20890;-72
2023/01/06 04:04:00;;;;;;;19.35;13.15;;;;;;;-146.25;100.00;52502.03;2072335;28;20118;-71
2023/01/06 04:05:15;;;;;;;22.30;13.55;;;;;;;-146.25;100.00;52491.88;2073555;28;20042;-72
2023/01/06 04:06:18;;;;;;;23.83;13.43;;;;;;;-146.25;100.00;52510.13;2073431;28;20042;-72
2023/01/06 04:07:20;;;;;;;19.60;12.68;;;;;;;-146.25;100.00;52481.75;2080933;28;20884;-72
2023/01/06 04:08:22;;;;;;;18.48;12.75;;;;;;;-146.25;100.00;52502.03;2079437;28;20058;-72
2023/01/06 04:09:26;;;;;;;17.88;12.75;;;;;;;-146.25;100.00;52518.25;2071636;28;20890;-72
2023/01/06 04:10:28;;;;;;;18.33;12.75;;;;;;;-146.25;100.00;52469.56;2079811;28;20053;-72
2023/01/06 04:12:55;;;;;;;18.88;12.40;;;;;;;-146.25;100.00;52453.34;2071649;28;20038;-72
2023/01/06 04:14:02;;;;;;;16.45;12.77;;;;;;;-146.25;100.00;52506.06;2076068;28;20161;-72
2023/01/06 04:15:08;;;;;;;18.70;12.95;;;;;;;-146.25;100.00;52534.47;2087096;28;29225;-72
2023/01/06 04:16:10;;;;;;;19.17;12.63;;;;;;;-146.25;100.00;52483.78;2088848;28;20131;-72
2023/01/06 04:17:12;;;;;;;17.83;12.32;;;;;;;-146.25;100.00;52500.00;2088045;28;20041;-72
2023/01/06 04:18:14;;;;;;;19.95;12.13;;;;;;;-146.25;100.00;52481.75;2088056;28;20037;-72
2023/01/06 04:19:17;;;;;;;17.67;12.52;;;;;;;-146.25;100.00;52457.41;2080288;28;20045;-72
2023/01/06 04:20:26;;;;;;;21.05;12.43;;;;;;;-146.25;100.00;52487.81;2079704;28;25155;-72
2023/01/06 04:21:55;;;;;;;19.65;12.45;;;;;;;-146.25;100.00;52467.56;2083837;28;20207;-72
2023/01/06 04:22:58;;;;;;;13.45;11.40;;;;;;;-146.25;100.00;52483.78;2097426;28;20147;-72
2023/01/06 04:24:06;;;;;;;16.95;11.85;;;;;;;-146.25;100.00;52475.66;2087450;28;20922;-73
2023/01/06 04:25:10;;;;;;;18.38;12.73;;;;;;;-146.25;100.00;52510.13;2073425;28;20173;-72
2023/01/06 04:26:14;;;;;;;16.63;12.65;;;;;;;-146.25;100.00;52518.25;2087849;28;20076;-72
2023/01/06 04:27:22;;;;;;;18.10;12.43;;;;;;;-146.25;100.00;52508.09;2097033;28;20553;-72
2023/01/06 04:28:24;;;;;;;16.83;12.60;;;;;;;-146.25;100.00;52489.84;2096452;28;20768;-72
2023/01/06 04:29:26;;;;;;;14.45;12.40;;;;;;;-146.25;100.00;52489.84;2079845;28;20073;-73
2023/01/06 04:30:30;;;;;;;18.27;12.55;;;;;;;-146.25;99.82;52473.63;2080222;28;20042;-72
2023/01/06 04:31:32;;;;;;;19.75;13.05;;;;;;;-146.25;99.97;52489.84;2087519;28;26959;-72
2023/01/06 04:32:36;;;;;;;16.00;13.15;;;;;;;-146.25;100.00;52479.72;2090232;28;20415;-73
2023/01/06 04:33:40;;;;;;;17.30;13.15;;;;;;;-146.25;99.90;52485.81;2088071;28;20967;-73
2023/01/06 04:34:44;;;;;;;17.85;13.45;;;;;;;-146.25;99.53;52477.69;2096710;28;20045;-72
2023/01/06 04:35:47;;;;;;;19.23;14.35;;;;;;;-146.25;100.00;52469.56;2096009;28;20045;-73
2023/01/06 04:36:51;;;;;;;19.35;13.65;;;;;;;-146.25;99.44;52491.88;2079849;28;20046;-72
2023/01/06 04:37:54;;;;;;;16.65;14.73;;;;;;;-146.25;99.50;52502.03;2080278;28;20179;-73
2023/01/06 04:38:55;;;;;;;19.48;15.00;;;;;;;-146.25;99.44;52459.44;2088179;28;36770;-73
2023/01/06 04:39:57;;;;;;;18.40;14.90;;;;;;;-146.25;98.94;52473.63;2096587;28;38195;-72
2023/01/06 04:40:59;;;;;;;17.88;13.82;;;;;;;-146.25;99.64;52497.97;2096442;28;20037;-72
2023/01/06 04:42:00;;;;;;;17.60;15.45;;;;;;;-146.25;98.97;52481.75;2095990;28;40901;-72
2023/01/06 04:43:05;;;;;;;18.58;15.35;;;;;;;-146.25;99.30;52497.97;2096410;28;34299;-72
2023/01/06 04:44:07;;;;;;;23.63;15.90;;;;;;;-146.25;99.15;52485.81;2096860;28;20037;-72
2023/01/06 04:45:09;;;;;;;18.70;15.63;;;;;;;-146.25;98.99;52491.88;2087454;28;41166;-72
2023/01/06 04:46:10;;;;;;;21.13;16.85;;;;;;;-146.25;99.01;52546.63;2087718;28;34117;-72
2023/01/06 04:47:12;;;;;;;19.92;16.90;;;;;;;-146.25;98.70;52471.59;2096341;28;38067;-72
2023/01/06 04:48:14;;;;;;;18.80;16.67;;;;;;;-146.25;98.63;52461.47;2096376;28;38208;-72
2023/01/06 04:49:15;;;;;;;21.23;16.40;;;;;;;-146.25;98.71;52473.63;2097441;28;20037;-72
2023/01/06 04:50:17;;;;;;;20.13;17.90;;;;;;;-146.25;98.47;52493.91;2096057;28;39984;-72
2023/01/06 04:51:19;;;;;;;23.02;17.63;;;;;;;-146.25;98.71;52512.16;2096390;28;38069;-72
2023/01/06 04:52:20;;;;;;;20.48;17.42;;;;;;;-146.25;98.76;52473.63;2095051;28;37275;-72
2023/01/06 04:53:22;;;;;;;19.65;17.50;;;;;;;-146.25;98.36;52467.56;2096000;28;39012;-73
2023/01/06 04:54:24;;;;;;;22.02;17.60;;;;;;;-146.25;98.09;52489.84;2096396;28;35946;-72
2023/01/06 04:55:28;;;;;;;22.25;18.52;;;;;;;-146.25;98.71;52471.59;2096198;28;38794;-72
2023/01/06 04:56:29;;;;;;;19.65;17.15;;;;;;;-146.25;98.76;52477.69;2096013;28;43342;-72
2023/01/06 04:57:31;;;;;;;22.67;18.23;;;;;;;-146.25;98.05;52477.69;2097057;28;20068;-72
2023/01/06 04:58:33;;;;;;;20.15;17.38;;;;;;;-146.25;98.34;52483.78;2096297;28;40420;-72
2023/01/06 04:59:35;;;;;;;23.67;18.17;;;;;;;-146.25;98.13;52453.34;2096257;28;38737;-72
2023/01/06 05:00:36;;;;;;;22.20;17.80;;;;;;;-146.25;98.31;52465.53;2096641;28;20385;-72
2023/01/06 05:01:38;;;;;;;23.58;18.38;;;;;;;-146.25;98.34;52461.47;2087355;28;43990;-73
2023/01/06 05:02:40;;;;;;;21.92;16.75;;;;;;;-146.25;97.89;52483.78;2096448;28;34923;-72
2023/01/06 05:03:42;;;;;;;20.17;17.58;;;;;;;-146.25;97.95;52493.91;2096057;28;20041;-72
2023/01/06 05:04:44;;;;;;;25.00;18.25;;;;;;;-146.25;97.86;52520.28;2096260;28;38495;-72
2023/01/06 05:05:48;;;;;;;22.13;18.38;;;;;;;-146.25;97.88;52459.44;2097044;28;20870;-72
2023/01/06 05:06:50;;;;;;;23.45;18.42;;;;;;;-146.25;97.71;52489.84;2096699;28;26561;-72
2023/01/06 05:07:55;;;;;;;20.92;17.42;;;;;;;-146.25;97.72;52497.97;2096081;28;36138;-72
2023/01/06 05:08:56;;;;;;;21.17;17.77;;;;;;;-146.25;97.57;52489.84;2087114;28;39939;-72
2023/01/06 05:09:58;;;;;;;19.50;17.40;;;;;;;-146.25;97.50;52479.72;2079385;28;42324;-72